createdAt,value
2023-04-29T00:01:48.839Z,2.55
2023-04-29T00:04:16.750Z,2.83
2023-04-29T00:06:44.757Z,2.25
2023-04-29T00:09:12.299Z,0.88
2023-04-29T00:11:39.829Z,1.33
2023-04-29T00:14:07.358Z,1.20
2023-04-29T00:16:35.002Z,3.40
2023-04-29T00:19:02.585Z,1.55
2023-04-29T00:21:30.269Z,1.05
2023-04-29T00:23:58.065Z,0.88
2023-04-29T00:26:25.872Z,1.17
2023-04-29T00:28:53.934Z,2.03
2023-04-29T00:31:22.017Z,0.60
2023-04-29T00:33:49.670Z,0.70
2023-04-29T00:36:17.217Z,2.40
2023-04-29T00:38:44.960Z,1.10
2023-04-29T00:41:12.645Z,0.60
2023-04-29T00:43:40.225Z,0.80
2023-04-29T00:46:07.899Z,2.53
2023-04-29T00:48:35.452Z,0.85
2023-04-29T00:51:04.065Z,2.75
2023-04-29T00:53:32.762Z,0.95
2023-04-29T00:56:01.028Z,1.13
2023-04-29T00:58:33.499Z,1.38
2023-04-29T01:01:02.045Z,0.70
2023-04-29T01:03:30.059Z,1.00
2023-04-29T01:06:16.684Z,0.80
2023-04-29T01:08:54.337Z,0.95
2023-04-29T01:11:24.287Z,1.95
2023-04-29T01:13:52.751Z,1.27
2023-04-29T01:16:44.451Z,0.82
2023-04-29T01:19:28.197Z,0.80
2023-04-29T01:21:56.093Z,0.82
2023-04-29T01:24:23.810Z,1.15
2023-04-29T01:26:58.338Z,1.10
2023-04-29T01:29:46.982Z,1.73
2023-04-29T01:34:53.409Z,1.42
2023-04-29T01:37:39.782Z,1.80
2023-04-29T01:40:17.828Z,0.98
2023-04-29T01:43:04.696Z,0.90
2023-04-29T01:45:35.286Z,1.20
2023-04-29T01:48:03.971Z,2.15
2023-04-29T01:50:32.682Z,0.90
2023-04-29T01:53:08.402Z,2.17
2023-04-29T01:55:36.087Z,1.10
2023-04-29T01:58:21.644Z,2.35
2023-04-29T02:01:10.315Z,1.45
2023-04-29T02:03:38.246Z,2.65
2023-04-29T02:06:08.856Z,1.77
2023-04-29T02:08:37.364Z,1.67
2023-04-29T02:11:05.058Z,1.60
2023-04-29T02:13:38.457Z,1.48
2023-04-29T02:16:14.316Z,2.85
2023-04-29T02:18:46.646Z,2.08
2023-04-29T02:21:14.185Z,1.10
2023-04-29T02:23:41.875Z,0.80
2023-04-29T02:26:10.467Z,1.20
2023-04-29T02:28:38.089Z,1.10
2023-04-29T02:31:05.657Z,1.70
2023-04-29T02:33:34.362Z,1.17
2023-04-29T02:36:02.137Z,1.33
2023-04-29T02:38:29.702Z,1.38
2023-04-29T02:40:57.570Z,2.50
2023-04-29T02:43:25.093Z,1.23
2023-04-29T02:45:52.736Z,2.00
2023-04-29T02:48:20.557Z,2.50
2023-04-29T02:50:49.179Z,1.38
2023-04-29T02:53:17.044Z,2.10
2023-04-29T02:55:44.636Z,1.20
2023-04-29T02:58:12.181Z,1.33
2023-04-29T03:00:42.104Z,1.15
2023-04-29T03:03:10.622Z,3.60
2023-04-29T03:05:38.218Z,2.10
2023-04-29T03:08:05.724Z,1.77
2023-04-29T03:10:33.914Z,1.63
2023-04-29T03:13:01.539Z,2.45
2023-04-29T03:15:29.536Z,1.92
2023-04-29T03:18:01.636Z,1.45
2023-04-29T03:20:29.602Z,1.67
2023-04-29T03:22:57.494Z,2.17
2023-04-29T03:25:24.996Z,1.58
2023-04-29T03:27:52.631Z,2.10
2023-04-29T03:30:20.213Z,1.20
2023-04-29T03:32:51.724Z,1.63
2023-04-29T03:35:19.600Z,1.52
2023-04-29T03:38:13.412Z,10.13
2023-04-29T03:40:41.029Z,1.70
2023-04-29T03:43:09.345Z,2.15
2023-04-29T03:45:37.369Z,2.05
2023-04-29T03:48:07.847Z,1.88
2023-04-29T03:50:36.732Z,4.10
2023-04-29T03:53:04.643Z,3.13
2023-04-29T03:55:32.544Z,1.75
2023-04-29T03:58:00.204Z,3.22
2023-04-29T04:00:31.065Z,2.92
2023-04-29T04:03:00.346Z,2.35
2023-04-29T04:05:29.408Z,3.50
2023-04-29T04:08:02.562Z,4.68
2023-04-29T04:10:50.062Z,2.97
2023-04-29T04:13:46.955Z,2.10
2023-04-29T04:16:16.226Z,2.58
2023-04-29T04:18:43.858Z,2.35
2023-04-29T04:21:12.236Z,2.17
2023-04-29T04:23:43.968Z,2.17
2023-04-29T04:26:14.267Z,2.30
2023-04-29T04:28:47.957Z,1.98
2023-04-29T04:31:41.763Z,2.10
2023-04-29T04:34:10.209Z,2.22
2023-04-29T04:36:38.027Z,2.80
2023-04-29T04:39:05.590Z,2.67
2023-04-29T04:41:33.539Z,3.13
2023-04-29T04:44:02.157Z,2.58
2023-04-29T04:46:36.990Z,3.03
2023-04-29T04:49:14.156Z,2.08
2023-04-29T04:51:49.451Z,2.60
2023-04-29T04:54:17.073Z,2.90
2023-04-29T04:56:44.806Z,4.57
2023-04-29T04:59:12.466Z,2.75
2023-04-29T05:01:41.535Z,2.25
2023-04-29T05:04:09.406Z,2.20
2023-04-29T05:06:37.557Z,2.67
2023-04-29T05:09:05.355Z,4.40
2023-04-29T05:11:33.135Z,3.80
2023-04-29T05:14:11.671Z,4.78
2023-04-29T05:16:39.333Z,2.13
2023-04-29T05:19:06.951Z,2.25
2023-04-29T05:21:38.236Z,2.92
2023-04-29T05:24:06.331Z,2.15
2023-04-29T05:26:33.918Z,2.53
2023-04-29T05:29:02.518Z,1.80
2023-04-29T05:31:34.891Z,2.03
2023-04-29T05:34:08.031Z,3.45
2023-04-29T05:36:35.602Z,1.92
2023-04-29T05:39:03.419Z,3.80
2023-04-29T05:41:30.967Z,8.15
2023-04-29T05:44:01.510Z,2.22
2023-04-29T05:46:29.106Z,6.70
2023-04-29T05:48:56.904Z,1.92
2023-04-29T05:51:24.556Z,2.05
2023-04-29T05:53:52.125Z,1.80
2023-04-29T05:56:19.984Z,2.20
2023-04-29T05:58:47.524Z,2.42
2023-04-29T06:01:15.116Z,2.90
2023-04-29T06:03:42.896Z,3.35
2023-04-29T06:06:33.411Z,4.25
2023-04-29T06:09:28.414Z,4.05
2023-04-29T06:12:03.291Z,3.22
2023-04-29T06:14:30.854Z,5.50
2023-04-29T06:16:59.799Z,3.45
2023-04-29T06:19:27.461Z,4.30
2023-04-29T06:21:55.154Z,4.72
2023-04-29T06:24:22.846Z,3.72
2023-04-29T06:26:50.685Z,5.68
2023-04-29T06:29:18.297Z,4.47
2023-04-29T06:31:46.017Z,4.53
2023-04-29T06:34:13.776Z,5.57
2023-04-29T06:36:57.941Z,4.43
2023-04-29T06:39:41.180Z,4.43
2023-04-29T06:42:27.611Z,5.18
2023-04-29T06:45:21.694Z,6.03
2023-04-29T06:48:09.179Z,5.25
2023-04-29T06:50:52.462Z,5.30
2023-04-29T06:53:20.370Z,5.95
2023-04-29T06:55:48.335Z,5.88
2023-04-29T06:58:16.541Z,6.72
2023-04-29T07:00:48.363Z,5.65
2023-04-29T07:05:45.359Z,5.85
2023-04-29T07:08:13.358Z,5.50
2023-04-29T07:10:44.171Z,4.80
2023-04-29T07:13:11.746Z,6.63
2023-04-29T07:15:39.319Z,4.82
2023-04-29T07:18:06.966Z,7.63
2023-04-29T07:20:37.331Z,4.10
2023-04-29T07:23:05.437Z,5.07
2023-04-29T07:25:33.688Z,4.40
2023-04-29T07:28:01.549Z,3.40
2023-04-29T07:30:29.706Z,3.28
2023-04-29T07:32:57.672Z,3.15
2023-04-29T07:35:25.350Z,3.75
2023-04-29T07:37:52.973Z,4.63
2023-04-29T07:40:20.650Z,4.80
2023-04-29T07:42:48.615Z,3.60
2023-04-29T07:45:16.295Z,4.57
2023-04-29T07:47:45.451Z,3.70
2023-04-29T07:50:13.172Z,4.13
2023-04-29T07:52:40.923Z,2.90
2023-04-29T07:55:09.622Z,4.20
2023-04-29T07:57:37.299Z,6.10
2023-04-29T08:00:05.232Z,4.97
2023-04-29T08:02:43.866Z,3.25
2023-04-29T08:05:14.675Z,2.50
2023-04-29T08:07:42.417Z,2.90
2023-04-29T08:10:10.530Z,5.32
2023-04-29T08:12:38.364Z,2.75
2023-04-29T08:15:07.808Z,2.75
2023-04-29T08:17:37.691Z,2.95
2023-04-29T08:20:05.533Z,3.90
2023-04-29T08:22:33.622Z,2.97
2023-04-29T08:25:03.077Z,3.50
2023-04-29T08:27:31.070Z,2.80
2023-04-29T08:29:58.804Z,2.53
2023-04-29T08:32:26.756Z,2.78
2023-04-29T08:34:54.694Z,2.70
2023-04-29T08:37:22.476Z,3.10
2023-04-29T08:39:50.020Z,1.52
2023-04-29T08:42:17.925Z,2.33
2023-04-29T08:44:45.837Z,2.72
2023-04-29T08:47:14.022Z,2.65
2023-04-29T08:49:42.025Z,1.65
2023-04-29T08:52:09.853Z,1.70
2023-04-29T08:54:37.393Z,1.67
2023-04-29T08:57:06.168Z,1.95
2023-04-29T08:59:33.815Z,1.52
2023-04-29T09:02:01.438Z,2.25
2023-04-29T09:04:29.128Z,2.20
2023-04-29T09:06:57.225Z,2.92
2023-04-29T09:09:25.559Z,1.77
2023-04-29T09:11:53.396Z,2.35
2023-04-29T09:14:21.281Z,4.07
2023-04-29T09:16:48.925Z,4.35
2023-04-29T09:19:33.170Z,2.83
2023-04-29T09:22:01.463Z,1.40
2023-04-29T09:24:30.123Z,1.30
2023-04-29T09:26:58.654Z,1.88
2023-04-29T09:29:26.523Z,1.10
2023-04-29T09:31:54.280Z,1.40
2023-04-29T09:34:32.084Z,1.80
2023-04-29T09:36:59.700Z,1.92
2023-04-29T09:39:27.274Z,2.55
2023-04-29T09:41:54.835Z,4.10
2023-04-29T09:44:23.946Z,1.50
2023-04-29T09:46:57.447Z,3.00
2023-04-29T09:49:28.987Z,3.80
2023-04-29T09:51:57.713Z,2.15
2023-04-29T09:54:26.276Z,1.58
2023-04-29T09:56:54.089Z,1.75
2023-04-29T09:59:22.667Z,1.02
2023-04-29T10:01:51.308Z,1.30
2023-04-29T10:04:19.581Z,1.17
2023-04-29T10:06:49.779Z,1.85
2023-04-29T10:09:17.984Z,2.67
2023-04-29T10:11:46.489Z,3.17
2023-04-29T10:14:16.681Z,3.25
2023-04-29T10:16:47.817Z,2.90
2023-04-29T10:19:32.684Z,2.65
2023-04-29T10:22:01.490Z,3.60
2023-04-29T10:24:29.140Z,5.10
2023-04-29T10:26:56.969Z,4.00
2023-04-29T10:29:26.166Z,3.08
2023-04-29T10:31:54.508Z,3.30
2023-04-29T10:34:22.782Z,2.83
2023-04-29T10:36:50.725Z,3.15
2023-04-29T10:39:32.923Z,1.55
2023-04-29T10:42:00.561Z,2.30
2023-04-29T10:44:28.157Z,2.00
2023-04-29T10:47:14.549Z,2.63
2023-04-29T10:50:02.090Z,2.13
2023-04-29T10:52:29.645Z,2.45
2023-04-29T10:55:04.038Z,1.65
2023-04-29T10:57:31.631Z,2.35
2023-04-29T10:59:59.139Z,1.98
2023-04-29T11:02:26.708Z,3.13
2023-04-29T11:05:10.877Z,1.38
2023-04-29T11:07:38.736Z,2.38
2023-04-29T11:10:07.503Z,1.42
2023-04-29T11:12:35.346Z,1.77
2023-04-29T11:15:06.098Z,2.15
2023-04-29T11:17:37.986Z,1.30
2023-04-29T11:20:12.650Z,1.17
2023-04-29T11:22:40.602Z,1.27
2023-04-29T11:25:09.568Z,1.35
2023-04-29T11:27:38.477Z,2.20
2023-04-29T11:30:07.455Z,1.58
2023-04-29T11:32:36.525Z,1.30
2023-04-29T11:35:13.025Z,0.98
2023-04-29T11:37:41.254Z,1.10
2023-04-29T11:40:09.721Z,0.82
2023-04-29T11:42:41.474Z,1.63
2023-04-29T11:45:09.118Z,1.35
2023-04-29T11:47:37.189Z,0.95
2023-04-29T11:50:05.741Z,1.25
2023-04-29T11:52:33.728Z,1.70
2023-04-29T11:55:01.472Z,1.95
2023-04-29T11:57:29.052Z,1.63
2023-04-29T11:59:58.117Z,0.68
2023-04-29T12:02:32.440Z,0.80
2023-04-29T12:05:03.838Z,4.13
2023-04-29T12:07:31.467Z,1.45
2023-04-29T12:09:59.979Z,0.90
2023-04-29T12:12:28.326Z,2.33
2023-04-29T12:14:56.227Z,1.25
2023-04-29T12:17:24.358Z,0.70
2023-04-29T12:19:51.944Z,1.25
2023-04-29T12:22:20.594Z,2.85
2023-04-29T12:24:50.594Z,0.93
2023-04-29T12:27:18.297Z,2.83
2023-04-29T12:29:47.335Z,0.82
2023-04-29T12:32:18.493Z,1.45
2023-04-29T12:34:47.506Z,1.13
2023-04-29T12:37:16.119Z,1.50
2023-04-29T12:39:43.732Z,2.20
2023-04-29T12:42:17.729Z,2.00
2023-04-29T12:44:48.918Z,0.77
2023-04-29T12:47:17.435Z,1.50
2023-04-29T12:49:45.970Z,1.95
2023-04-29T12:52:13.600Z,1.25
2023-04-29T12:54:44.845Z,0.88
2023-04-29T12:59:43.282Z,0.57
2023-04-29T13:02:10.823Z,0.50
2023-04-29T13:04:39.979Z,2.08
2023-04-29T13:07:07.867Z,1.95
2023-04-29T13:09:37.808Z,2.17
2023-04-29T13:12:05.635Z,1.90
2023-04-29T13:14:33.161Z,1.85
2023-04-29T13:17:01.113Z,0.60
2023-04-29T13:19:44.071Z,2.70
2023-04-29T13:22:16.400Z,0.95
2023-04-29T13:24:43.961Z,0.98
2023-04-29T13:27:11.845Z,0.80
2023-04-29T13:29:39.382Z,1.23
2023-04-29T13:32:08.215Z,1.45
2023-04-29T13:34:36.043Z,0.98
2023-04-29T13:37:03.631Z,1.70
2023-04-29T13:39:31.713Z,2.75
2023-04-29T13:41:59.816Z,0.90
2023-04-29T13:44:36.026Z,2.72
2023-04-29T13:47:16.308Z,0.68
2023-04-29T13:50:16.784Z,0.63
2023-04-29T14:00:19.170Z,0.55
2023-04-29T14:05:23.049Z,2.08
2023-04-29T14:07:51.706Z,1.10
2023-04-29T14:10:19.234Z,2.60
2023-04-29T14:12:47.181Z,1.40
2023-04-29T14:15:15.109Z,1.98
2023-04-29T14:17:42.756Z,1.42
2023-04-29T14:20:10.477Z,0.90
2023-04-29T14:22:37.988Z,1.20
2023-04-29T14:25:05.737Z,1.25
2023-04-29T14:27:34.637Z,0.90
2023-04-29T14:30:02.185Z,0.80
2023-04-29T14:32:29.713Z,1.20
2023-04-29T14:34:57.377Z,0.73
2023-04-29T14:37:24.933Z,0.82
2023-04-29T14:39:52.452Z,1.17
2023-04-29T14:42:20.026Z,1.13
2023-04-29T14:44:47.628Z,1.38
2023-04-29T14:47:15.150Z,0.80
2023-04-29T14:49:42.735Z,1.10
2023-04-29T14:52:10.354Z,0.60
2023-04-29T14:54:38.065Z,0.70
2023-04-29T14:57:06.011Z,3.70
2023-04-29T14:59:33.511Z,1.30
2023-04-29T15:02:02.258Z,1.35
2023-04-29T15:04:35.704Z,1.90
2023-04-29T15:07:07.238Z,0.80
2023-04-29T15:09:35.143Z,0.95
2023-04-29T15:12:02.684Z,1.00
2023-04-29T15:14:30.495Z,0.70
2023-04-29T15:16:58.040Z,1.48
2023-04-29T15:19:26.282Z,1.08
2023-04-29T15:21:54.395Z,1.00
2023-04-29T15:24:21.952Z,1.02
2023-04-29T15:26:51.609Z,1.40
2023-04-29T15:29:19.251Z,1.50
2023-04-29T15:31:46.846Z,1.13
2023-04-29T15:34:14.468Z,1.40
2023-04-29T15:36:42.563Z,1.70
2023-04-29T15:39:13.179Z,0.60
2023-04-29T15:41:40.814Z,2.72
2023-04-29T15:44:08.341Z,0.80
2023-04-29T15:46:36.568Z,0.90
2023-04-29T15:49:05.875Z,4.80
2023-04-29T15:51:33.516Z,1.20
2023-04-29T15:54:01.072Z,1.25
2023-04-29T15:56:28.684Z,1.08
2023-04-29T15:58:56.616Z,0.80
2023-04-29T16:01:24.324Z,0.93
2023-04-29T16:03:51.991Z,1.60
2023-04-29T16:06:19.642Z,0.82
2023-04-29T16:08:47.833Z,1.73
2023-04-29T16:11:15.536Z,0.98
2023-04-29T16:13:43.052Z,0.85
2023-04-29T16:16:10.762Z,0.95
2023-04-29T16:18:38.560Z,0.82
2023-04-29T16:21:06.245Z,0.63
2023-04-29T16:23:33.773Z,1.08
2023-04-29T16:26:01.711Z,1.65
2023-04-29T16:28:29.276Z,1.50
2023-04-29T16:30:56.996Z,2.70
2023-04-29T16:33:25.752Z,1.40
2023-04-29T16:35:54.083Z,2.28
2023-04-29T16:38:21.590Z,1.60
2023-04-29T16:40:50.607Z,1.50
2023-04-29T16:43:19.061Z,2.22
2023-04-29T16:45:47.227Z,1.42
2023-04-29T16:48:14.785Z,1.58
2023-04-29T16:50:42.325Z,1.85
2023-04-29T16:53:09.985Z,3.47
2023-04-29T16:55:37.532Z,1.80
2023-04-29T16:58:05.204Z,1.55
2023-04-29T17:00:32.737Z,2.97
2023-04-29T17:03:00.939Z,2.75
2023-04-29T17:05:28.650Z,1.27
2023-04-29T17:07:56.225Z,1.73
2023-04-29T17:10:23.909Z,1.50
2023-04-29T17:12:51.455Z,2.45
2023-04-29T17:15:18.998Z,2.95
2023-04-29T17:17:46.698Z,2.97
2023-04-29T17:20:14.628Z,3.33
2023-04-29T17:22:42.237Z,2.42
2023-04-29T17:25:10.578Z,2.35
2023-04-29T17:27:38.185Z,3.03
2023-04-29T17:30:06.098Z,2.90
2023-04-29T17:32:38.914Z,2.28
2023-04-29T17:35:07.756Z,3.85
2023-04-29T17:37:35.419Z,2.60
2023-04-29T17:40:03.390Z,2.63
2023-04-29T17:42:30.973Z,2.67
2023-04-29T17:44:58.569Z,3.17
2023-04-29T17:47:26.189Z,3.85
2023-04-29T17:49:54.324Z,3.08
2023-04-29T17:52:22.056Z,2.83
2023-04-29T17:54:49.657Z,3.28
2023-04-29T17:57:17.214Z,3.35
2023-04-29T17:59:44.849Z,4.00
2023-04-29T18:02:12.369Z,4.35
2023-04-29T18:04:40.634Z,4.47
2023-04-29T18:07:08.234Z,4.10
2023-04-29T18:09:35.809Z,3.33
2023-04-29T18:12:03.598Z,3.42
2023-04-29T18:14:31.860Z,3.05
2023-04-29T18:17:01.009Z,3.35
2023-04-29T18:19:28.686Z,4.10
2023-04-29T18:21:58.963Z,3.53
2023-04-29T18:24:27.337Z,5.13
2023-04-29T18:26:56.762Z,4.10
2023-04-29T18:29:24.709Z,3.97
2023-04-29T18:31:54.509Z,4.63
2023-04-29T18:34:22.286Z,4.78
2023-04-29T18:36:49.808Z,4.57
2023-04-29T18:39:17.944Z,4.03
2023-04-29T18:41:45.620Z,4.93
2023-04-29T18:44:13.226Z,6.03
2023-04-29T18:46:41.325Z,5.97
2023-04-29T18:49:11.692Z,4.93
2023-04-29T18:51:40.352Z,4.15
2023-04-29T18:54:07.920Z,6.68
2023-04-29T18:56:36.841Z,7.32
2023-04-29T18:59:06.222Z,7.97
2023-04-29T19:01:33.826Z,5.68
2023-04-29T19:04:04.553Z,5.78
2023-04-29T19:06:32.595Z,6.32
2023-04-29T19:09:00.694Z,7.13
2023-04-29T19:11:28.268Z,7.57
2023-04-29T19:13:56.010Z,5.50
2023-04-29T19:16:24.883Z,5.28
2023-04-29T19:18:52.479Z,6.00
2023-04-29T19:21:20.534Z,5.28
2023-04-29T19:23:48.286Z,5.70
2023-04-29T19:26:15.808Z,5.72
2023-04-29T19:28:43.369Z,5.47
2023-04-29T19:31:11.755Z,6.18
2023-04-29T19:33:39.394Z,4.88
2023-04-29T19:36:07.396Z,5.82
2023-04-29T19:38:35.075Z,8.30
2023-04-29T19:41:02.613Z,6.30
2023-04-29T19:43:30.132Z,12.80
2023-04-29T19:45:57.662Z,5.07
2023-04-29T19:48:25.178Z,5.35
2023-04-29T19:50:52.806Z,5.00
2023-04-29T19:53:20.407Z,5.30
2023-04-29T19:55:50.527Z,5.78
2023-04-29T19:58:19.151Z,7.70
2023-04-29T20:00:47.011Z,6.75
2023-04-29T20:03:14.634Z,7.88
2023-04-29T20:05:42.223Z,7.05
2023-04-29T20:08:09.796Z,4.35
2023-04-29T20:10:37.612Z,5.57
2023-04-29T20:13:05.287Z,7.25
2023-04-29T20:15:32.885Z,5.15
2023-04-29T20:18:00.610Z,5.63
2023-04-29T20:20:28.266Z,7.43
2023-04-29T20:22:58.052Z,5.05
2023-04-29T20:25:26.925Z,5.28
2023-04-29T20:27:54.456Z,3.95
2023-04-29T20:30:21.991Z,4.50
2023-04-29T20:32:49.930Z,5.28
2023-04-29T20:35:17.820Z,4.85
2023-04-29T20:37:45.886Z,4.80
2023-04-29T20:40:14.343Z,4.00
2023-04-29T20:42:42.073Z,8.43
2023-04-29T20:45:11.463Z,5.07
2023-04-29T20:47:39.359Z,5.28
2023-04-29T20:50:07.345Z,5.10
2023-04-29T20:52:36.416Z,5.32
2023-04-29T20:55:04.695Z,4.00
2023-04-29T20:57:32.717Z,3.88
2023-04-29T21:00:00.274Z,6.18
2023-04-29T21:02:27.929Z,4.30
2023-04-29T21:04:55.568Z,4.18
2023-04-29T21:07:23.145Z,4.00
2023-04-29T21:09:50.848Z,4.78
2023-04-29T21:12:18.445Z,5.32
2023-04-29T21:14:45.993Z,3.65
2023-04-29T21:17:13.613Z,4.90
2023-04-29T21:19:41.992Z,4.55
2023-04-29T21:22:09.687Z,3.55
2023-04-29T21:24:37.260Z,4.50
2023-04-29T21:27:04.801Z,4.35
2023-04-29T21:29:34.493Z,4.47
2023-04-29T21:32:02.179Z,4.05
2023-04-29T21:34:29.724Z,7.53
2023-04-29T21:36:57.437Z,4.70
2023-04-29T21:39:25.048Z,5.18
2023-04-29T21:41:52.649Z,6.43
2023-04-29T21:44:20.227Z,7.35
2023-04-29T21:46:47.876Z,5.90
2023-04-29T21:49:15.505Z,5.57
2023-04-29T21:51:43.083Z,6.75
2023-04-29T21:54:10.764Z,6.10
2023-04-29T21:56:38.311Z,5.95
2023-04-29T21:59:05.832Z,6.68
2023-04-29T22:01:47.993Z,4.93
2023-04-29T22:04:17.101Z,6.32
2023-04-29T22:06:44.753Z,3.95
2023-04-29T22:09:12.453Z,5.68
2023-04-29T22:11:40.089Z,4.72
2023-04-29T22:14:07.675Z,4.78
2023-04-29T22:16:36.001Z,5.63
2023-04-29T22:19:04.124Z,4.60
2023-04-29T22:21:31.780Z,4.32
2023-04-29T22:23:59.412Z,7.82
2023-04-29T22:26:26.955Z,5.32
2023-04-29T22:28:54.932Z,5.22
2023-04-29T22:31:22.718Z,4.35
2023-04-29T22:33:50.820Z,4.50
2023-04-29T22:36:18.772Z,6.78
2023-04-29T22:38:46.319Z,5.32
2023-04-29T22:41:14.214Z,4.78
2023-04-29T22:43:41.751Z,5.38
2023-04-29T22:46:09.507Z,4.10
2023-04-29T22:48:37.085Z,4.20
2023-04-29T22:51:04.636Z,4.18
2023-04-29T22:53:32.190Z,4.95
2023-04-29T22:56:00.471Z,5.53
2023-04-29T22:58:28.602Z,5.10
2023-04-29T23:00:57.206Z,4.22
2023-04-29T23:03:25.217Z,4.22
2023-04-29T23:05:54.879Z,6.60
2023-04-29T23:08:22.646Z,3.85
2023-04-29T23:10:50.475Z,5.15
2023-04-29T23:13:18.216Z,4.13
2023-04-29T23:15:46.000Z,5.60
2023-04-29T23:18:13.666Z,5.90
2023-04-29T23:20:41.259Z,5.50
2023-04-29T23:23:08.813Z,5.47
2023-04-29T23:25:36.444Z,5.05
2023-04-29T23:28:04.000Z,4.88
2023-04-29T23:30:33.042Z,6.18
2023-04-29T23:33:00.727Z,5.25
2023-04-29T23:35:28.338Z,5.32
2023-04-29T23:37:56.192Z,4.32
2023-04-29T23:40:23.845Z,7.47
2023-04-29T23:42:51.440Z,5.30
2023-04-29T23:45:19.104Z,5.45
2023-04-29T23:47:46.722Z,6.25
2023-04-29T23:50:14.370Z,9.68
2023-04-29T23:52:41.925Z,5.32
2023-04-29T23:55:09.848Z,5.75
2023-04-29T23:57:37.354Z,5.65
